Shamrock, Oklahoma
Current Conditions -  °F | °C
As of 1:15 PM on Friday 24 Oct 2014 (Local Time) from KCUH Reporting Station
Clear Clear  
Wind Chill: 77°   Ceiling: Unl
Heat Index: 79°   Visibility: 10mi
Dew Point: 64°   Wind: 7mph
Humidity: 65%   Direction: 200°SSW
Pressure: 30.08"   Gusts: NA
Location:  35.91°N, 96.58°W
Report Text: KCUH 241815Z AUTO 20006KT 10SM CLR 25/18 A3008 RMK AO2
Loading
Personal Weather Stations






























Interactive Weather Map
Tropical Storm Tracking
New forecast layout! Learn more

10-Day Weather Forecast

Advertisements
Track Severe Weather on mobile